Weather reports worldwide

Advertisment
Alto De Los Leones, Spain (8217): temperature & dewpoint: 24.10.2020 21:00:00 - 30.10.2020 21:00:00 (CET)Alto De Los Leones, Spain (8217): wind speed & gusts: 24.10.2020 21:00:00 - 30.10.2020 21:00:00 (CET)Alto De Los Leones, Spain (8217): wind direction: 24.10.2020 21:00:00 - 30.10.2020 21:00:00 (CET)Alto De Los Leones, Spain (8217): precipitation: 24.10.2020 21:00:00 - 30.10.2020 21:00:00 (CET)
Date & Time tt [°C] td [°C] ff [km/h] ff [kn] fx [km/h] fx [kn] dd rr [mm]
30.10.2020 21:00:00 - - - - - - - -
30.10.2020 20:00:00 9,3 4,3 7 4 10 5 E 0,0
30.10.2020 19:00:00 9,4 3,9 9 5 11 6 ESE -
30.10.2020 18:00:00 11,5 3,6 4 2 7 4 ESE 0,0
30.10.2020 17:00:00 12,7 3,4 5 3 11 6 ESE 0,0
30.10.2020 16:00:00 13,6 2,5 6 3 11 6 SE 0,0
30.10.2020 15:00:00 13,3 1,9 8 4 14 7 SE 0,0
30.10.2020 14:00:00 14,2 2,5 4 2 11 6 ESE 0,0
30.10.2020 13:00:00 13,9 1,5 7 4 16 9 WNW -
30.10.2020 12:00:00 12,5 0,6 9 5 15 8 WNW 0,0
30.10.2020 11:00:00 11,4 0,0 11 6 17 9 WNW 0,0
30.10.2020 10:00:00 10,4 0,6 13 7 19 10 WNW 0,0
30.10.2020 09:00:00 8,2 -1,7 14 8 26 14 WNW 0,0
30.10.2020 08:00:00 8,5 -2,5 16 9 24 13 W 0,0
30.10.2020 07:00:00 8,4 -3,3 16 9 24 13 W -
30.10.2020 06:00:00 7,6 -3,3 16 9 21 11 WNW 0,1
30.10.2020 05:00:00 7,0 -6,0 13 7 15 8 WNW 0,0
30.10.2020 04:00:00 8,2 -10,8 9 5 13 7 W 0,0
30.10.2020 03:00:00 9,9 -15,1 3 2 8 4 NW 0,0
30.10.2020 02:00:00 11,6 -15,1 2 1 12 7 SSE 0,0
30.10.2020 01:00:00 10,6 -8,2 7 4 12 6 ESE -
30.10.2020 00:00:00 8,5 -4,5 10 5 15 8 ESE 0,0
29.10.2020 23:00:00 8,0 -4,8 13 7 18 10 ESE 0,0
29.10.2020 22:00:00 9,2 -4,5 13 7 16 9 ESE 0,0
29.10.2020 21:00:00 10,7 -9,4 11 6 14 8 ESE 0,0
29.10.2020 20:00:00 10,6 -5,4 10 5 14 7 SE 0,0
29.10.2020 19:00:00 - - - - - - - -
29.10.2020 18:00:00 7,6 2,5 11 6 13 7 ESE 0,0
29.10.2020 17:00:00 9,7 3,6 6 3 11 6 E 0,0
29.10.2020 16:00:00 9,8 4,6 9 5 16 9 E 0,0
29.10.2020 15:00:00 9,6 6,1 10 6 16 9 E 0,0
29.10.2020 14:00:00 7,8 4,3 10 5 15 8 E 0,0
29.10.2020 13:00:00 7,8 4,3 4 2 14 8 ENE -
29.10.2020 12:00:00 5,1 1,7 13 7 26 14 ESE 0,0
29.10.2020 11:00:00 4,0 0,6 22 12 30 16 ESE 0,0
29.10.2020 10:00:00 3,9 0,6 21 12 29 16 ESE 0,0
29.10.2020 09:00:00 3,9 0,6 16 9 23 12 ESE 0,0
29.10.2020 08:00:00 4,1 0,9 18 10 24 13 ESE 0,0
29.10.2020 07:00:00 4,2 0,9 20 11 31 17 ESE -
29.10.2020 06:00:00 4,5 1,3 7 4 21 11 W 0,0
29.10.2020 05:00:00 3,5 0,2 8 4 19 10 WNW 0,0
29.10.2020 04:00:00 4,3 1,1 10 6 14 7 E 0,0
29.10.2020 03:00:00 5,3 1,9 6 4 9 5 WNW 0,0
29.10.2020 02:00:00 5,9 2,5 4 2 9 5 WNW 0,0
29.10.2020 01:00:00 6,0 2,7 7 4 8 5 WNW -
29.10.2020 00:00:00 6,8 3,4 5 3 13 7 NW 0,0
28.10.2020 23:00:00 7,0 3,6 10 6 26 14 WNW 0,0
28.10.2020 22:00:00 7,6 4,1 18 10 32 17 WNW 0,0
28.10.2020 21:00:00 7,9 4,5 19 11 34 18 WNW 0,0
28.10.2020 20:00:00 8,1 4,6 13 7 24 13 WNW 0,0
28.10.2020 19:00:00 8,6 5,1 16 9 29 16 NW -
28.10.2020 18:00:00 9,1 5,6 18 10 26 14 NW 0,0
28.10.2020 17:00:00 9,8 6,4 12 7 23 12 NW 0,0
28.10.2020 16:00:00 10,5 7,0 5 3 22 12 NW 0,0
28.10.2020 15:00:00 10,4 6,8 9 5 24 13 WNW 0,0
28.10.2020 14:00:00 10,3 6,8 13 7 28 15 WNW 0,0
28.10.2020 13:00:00 10,0 6,5 12 7 23 12 NW -
28.10.2020 12:00:00 9,5 6,1 17 9 32 18 WNW 0,0
28.10.2020 11:00:00 9,4 5,9 19 10 30 16 WNW 0,0
28.10.2020 10:00:00 9,0 5,6 16 9 28 15 WNW 0,0
28.10.2020 09:00:00 8,6 5,1 20 11 38 20 WNW 0,0
28.10.2020 08:00:00 8,4 5,0 23 13 44 24 WNW 0,0
28.10.2020 07:00:00 8,3 4,8 24 13 41 22 WNW -
28.10.2020 06:00:00 7,9 4,5 19 10 31 17 WNW 0,0
28.10.2020 05:00:00 7,1 3,8 16 8 24 13 WNW 0,0
28.10.2020 04:00:00 6,9 3,6 15 8 25 13 WNW 0,0
28.10.2020 03:00:00 6,7 3,2 18 10 34 18 WNW 0,0
28.10.2020 02:00:00 6,6 3,2 23 13 35 19 WNW 0,0
28.10.2020 01:00:00 5,8 2,5 24 13 35 19 WNW -
28.10.2020 00:00:00 5,7 2,3 27 14 40 22 WNW 0,0
27.10.2020 23:00:00 5,7 0,9 26 14 37 20 WNW 0,0
27.10.2020 22:00:00 5,6 0,6 27 15 44 24 WNW 0,0
27.10.2020 21:00:00 5,0 0,2 24 13 40 21 WNW 0,0
27.10.2020 20:00:00 5,0 0,2 27 14 43 23 WNW 0,0
27.10.2020 19:00:00 4,9 0,0 27 15 49 26 WNW -
27.10.2020 18:00:00 5,2 0,0 32 17 50 27 WNW 0,0
27.10.2020 17:00:00 5,9 -0,7 31 17 44 24 WNW 0,0
27.10.2020 16:00:00 6,4 -1,0 29 15 94 51 WNW 0,0
27.10.2020 15:00:00 5,6 -1,4 37 20 60 33 WNW 0,0
27.10.2020 14:00:00 5,5 -1,7 36 19 51 28 NW 0,0
27.10.2020 13:00:00 5,4 -0,7 31 17 48 26 WNW -
27.10.2020 12:00:00 3,8 -1,2 36 19 52 28 WNW 0,0
27.10.2020 11:00:00 2,9 -0,7 32 17 55 30 NW 0,0
27.10.2020 10:00:00 1,7 -1,4 36 19 59 32 WNW 0,0
27.10.2020 09:00:00 - - 42 23 61 33 WNW 0,0
27.10.2020 08:00:00 0,5 -2,5 42 23 57 31 WNW 0,0
27.10.2020 07:00:00 0,4 -2,7 35 19 50 27 WNW -
27.10.2020 06:00:00 0,7 -2,5 29 16 48 26 WNW 0,0
27.10.2020 05:00:00 0,6 -2,5 32 17 51 28 WNW 0,0
27.10.2020 04:00:00 0,7 -2,5 32 18 52 28 WNW 0,0
27.10.2020 03:00:00 0,6 -2,7 35 19 57 31 WNW 0,0
27.10.2020 02:00:00 1,0 -2,5 37 20 55 30 WNW 0,0
27.10.2020 01:00:00 0,9 -2,7 33 18 53 29 WNW -
27.10.2020 00:00:00 1,4 -3,3 34 18 51 28 WNW 0,0
26.10.2020 23:00:00 1,6 -3,6 24 13 40 22 WNW 0,0
26.10.2020 22:00:00 1,5 -3,9 27 14 42 23 WNW 0,0
26.10.2020 21:00:00 1,6 -3,6 28 15 48 26 WNW 0,0
26.10.2020 20:00:00 1,7 -3,6 30 16 59 32 WNW 0,0
26.10.2020 19:00:00 2,0 -4,8 36 19 56 30 WNW -
26.10.2020 18:00:00 2,3 -4,8 30 16 48 26 WNW 0,0
26.10.2020 17:00:00 3,1 -4,8 29 16 52 28 WNW 0,0
26.10.2020 16:00:00 2,7 -4,8 33 18 61 33 NW 0,0
26.10.2020 15:00:00 2,9 -3,9 40 21 63 34 NW 0,0
26.10.2020 14:00:00 1,6 -1,4 34 19 60 32 NW 0,0
26.10.2020 13:00:00 1,0 -2,0 35 19 57 31 NW -
26.10.2020 12:00:00 0,1 -3,0 37 20 64 35 NW 0,0
26.10.2020 11:00:00 -0,2 -3,3 40 21 79 43 NW 0,0
26.10.2020 10:00:00 -0,4 -3,6 55 30 87 47 NW 0,0
26.10.2020 09:00:00 -0,4 -3,6 47 25 75 40 NW 0,0
26.10.2020 08:00:00 -0,5 -3,6 46 25 80 43 WNW 0,0
26.10.2020 07:00:00 -0,3 -3,3 53 28 79 43 NW -
26.10.2020 06:00:00 0,0 -3,0 50 27 81 44 WNW 0,0
26.10.2020 05:00:00 0,0 -3,0 50 27 78 42 WNW 0,0
26.10.2020 04:00:00 0,2 -2,7 47 25 72 39 WNW 0,0
26.10.2020 03:00:00 0,7 -2,5 40 22 63 34 NW 0,0
26.10.2020 02:00:00 0,7 -2,5 37 20 57 31 WNW 0,0
26.10.2020 01:00:00 1,0 -2,0 37 20 66 35 WNW -
26.10.2020 00:00:00 0,9 -2,2 39 21 60 33 WNW 0,0
25.10.2020 23:00:00 1,4 -1,7 34 18 58 31 WNW 0,0
25.10.2020 22:00:00 1,8 -1,2 39 21 72 39 WNW 0,3
25.10.2020 21:00:00 2,2 -1,0 39 21 74 40 WNW 0,1
25.10.2020 20:00:00 4,1 0,9 41 22 69 37 WNW 0,4
25.10.2020 19:00:00 6,0 2,7 29 16 50 27 NW -
25.10.2020 18:00:00 7,1 3,8 10 6 34 19 NW 1,4
25.10.2020 17:00:00 7,4 3,9 14 8 37 20 SW 0,0
25.10.2020 16:00:00 6,8 3,4 8 5 33 18 S 0,0
25.10.2020 15:00:00 6,6 3,2 4 2 29 16 ESE 0,0
25.10.2020 14:00:00 6,3 2,9 10 5 25 13 ESE 0,1
25.10.2020 13:00:00 6,6 3,2 4 2 29 16 E -
25.10.2020 12:00:00 6,4 3,0 4 2 27 15 ESE 0,0
25.10.2020 11:00:00 5,2 1,9 12 7 32 17 ESE 0,0
25.10.2020 10:00:00 4,6 1,3 16 9 30 16 E 0,0
25.10.2020 09:00:00 4,3 1,1 10 6 22 12 ESE 0,0
25.10.2020 08:00:00 3,9 0,6 9 5 18 10 E 0,0
25.10.2020 07:00:00 4,0 0,6 10 6 19 10 E -
25.10.2020 06:00:00 4,1 0,6 6 4 19 10 S 0,0
25.10.2020 05:00:00 4,0 0,4 4 2 24 13 E 0,0
25.10.2020 04:00:00 4,7 0,2 2 1 22 12 SSE 0,0
25.10.2020 03:00:00 3,9 0,6 10 6 14 8 ESE 0,0
25.10.2020 02:00:00 3,9 0,2 8 4 15 8 E 0,0
25.10.2020 01:00:00 - - - - - - - -
25.10.2020 00:00:00 3,9 0,6 5 3 18 10 WNW 0,0
24.10.2020 23:00:00 4,7 1,3 12 6 22 12 WNW 0,0
24.10.2020 22:00:00 4,7 1,3 12 6 21 11 WNW 0,0
24.10.2020 21:00:00 5,0 1,5 12 7 19 11 WNW 0,0

tt = temperature
td = dewpoint
ff = wind speed
fx = gusts
dd = wind direction
rr = precipitation

Next stations